Time;durP1;ratioP1;P1;durP2;ratioP2;P2;SDS_P1;SDS_P2;PMS_P1;PMS_P2;Temp;Humidity;BMP_temperature;BMP_pressure;BME280_temperature;BME280_humidity;BME280_pressure;Samples;Min_cycle;Max_cycle;Signal;HPM_P1;HPM_P2
2022/08/10 00:02:50;;;;;;;3.27;1.60;;;;;;;20.01;41.97;99170.84;4971073;28;20628;-50
2022/08/10 00:05:17;;;;;;;2.80;1.97;;;;;;;20.02;41.99;99172.47;4971621;28;20284;-50
2022/08/10 00:07:44;;;;;;;7.73;1.73;;;;;;;20.10;42.18;99172.28;4975475;28;20200;-50
2022/08/10 00:10:13;;;;;;;1.97;1.83;;;;;;;19.99;42.01;99181.63;4975557;28;20222;-53
2022/08/10 00:12:42;;;;;;;2.87;1.63;;;;;;;19.94;42.69;99173.44;4972816;28;20256;-50
2022/08/10 00:15:11;;;;;;;5.17;1.80;;;;;;;20.00;42.75;99179.81;4971767;28;20704;-50
2022/08/10 00:17:38;;;;;;;5.67;1.50;;;;;;;19.88;42.92;99172.38;4971926;28;20595;-52
2022/08/10 00:20:06;;;;;;;2.60;1.67;;;;;;;19.95;43.56;99172.44;4970445;28;20203;-52
2022/08/10 00:22:33;;;;;;;2.40;1.97;;;;;;;19.93;43.56;99173.66;4971435;28;20226;-53
2022/08/10 00:25:00;;;;;;;1.80;1.50;;;;;;;19.93;43.62;99166.50;4971591;28;20667;-51
2022/08/10 00:27:46;;;;;;;3.43;1.90;;;;;;;19.89;44.00;99167.94;4972243;28;20556;-52
2022/08/10 00:30:13;;;;;;;4.13;1.47;;;;;;;19.83;43.97;99163.38;4954717;28;20296;-51
2022/08/10 00:32:40;;;;;;;2.97;1.80;;;;;;;19.83;43.77;99161.56;4971125;28;20651;-51
2022/08/10 00:35:07;;;;;;;2.10;1.70;;;;;;;19.75;44.00;99162.53;4958233;28;20199;-50
2022/08/10 00:37:34;;;;;;;2.03;1.80;;;;;;;19.77;44.50;99165.00;4970756;28;20188;-53
2022/08/10 00:40:01;;;;;;;3.43;1.70;;;;;;;19.75;44.44;99165.19;4971760;28;20284;-53
2022/08/10 00:42:28;;;;;;;2.20;1.73;;;;;;;19.73;44.57;99164.56;4971298;28;20242;-50
2022/08/10 00:44:56;;;;;;;3.83;1.60;;;;;;;19.62;44.87;99162.47;4969988;28;20236;-53
2022/08/10 00:47:24;;;;;;;4.83;1.67;;;;;;;19.70;44.40;99162.31;4971520;28;20214;-50
2022/08/10 00:49:50;;;;;;;2.57;1.67;;;;;;;19.88;44.63;99163.59;4971636;28;20188;-50
2022/08/10 00:52:19;;;;;;;3.53;1.60;;;;;;;19.90;44.84;99165.09;4970523;28;20233;-50
2022/08/10 00:54:47;;;;;;;2.20;1.43;;;;;;;19.91;44.78;99169.38;4974779;28;20696;-52
2022/08/10 00:57:35;;;;;;;4.27;1.73;;;;;;;19.91;44.93;99168.53;4974624;28;20271;-50
2022/08/10 01:00:04;;;;;;;2.87;1.80;;;;;;;19.84;45.15;99157.06;4975292;28;20211;-50
2022/08/10 01:02:32;;;;;;;2.80;1.83;;;;;;;19.80;45.44;99164.63;4974743;28;20251;-51
2022/08/10 01:05:00;;;;;;;1.87;1.63;;;;;;;19.86;45.41;99157.69;4974918;28;20239;-52
2022/08/10 01:07:41;;;;;;;2.73;1.50;;;;;;;19.82;44.94;99154.63;4974936;28;20199;-51
2022/08/10 01:10:18;;;;;;;2.43;1.63;;;;;;;19.86;45.32;99155.03;4966577;28;20285;-52
2022/08/10 01:12:51;;;;;;;3.47;1.60;;;;;;;19.89;45.64;99160.81;4963108;28;20277;-50
2022/08/10 01:15:25;;;;;;;3.53;1.50;;;;;;;19.82;45.89;99156.44;4975369;28;20250;-51
2022/08/10 01:18:02;;;;;;;5.13;2.10;;;;;;;19.71;46.07;99155.19;4974786;28;20259;-51
2022/08/10 01:20:38;;;;;;;6.43;1.77;;;;;;;19.71;46.51;99155.19;4973635;28;20199;-50
2022/08/10 01:23:41;;;;;;;5.10;2.30;;;;;;;19.80;46.02;99151.38;4973379;28;20225;-53
2022/08/10 01:26:30;;;;;;;3.53;1.73;;;;;;;19.70;46.23;99158.88;4968270;28;20214;-51
2022/08/10 01:29:11;;;;;;;3.53;1.53;;;;;;;19.70;46.68;99146.44;4974429;28;20562;-49
2022/08/10 01:31:44;;;;;;;3.13;1.90;;;;;;;19.76;46.17;99144.84;4973377;28;20309;-50
2022/08/10 01:34:14;;;;;;;2.33;1.90;;;;;;;19.63;46.82;99153.53;4974336;28;20240;-52
2022/08/10 01:37:04;;;;;;;4.07;2.03;;;;;;;19.86;46.15;99153.22;4974988;28;20206;-51
2022/08/10 01:39:37;;;;;;;2.13;1.40;;;;;;;19.90;45.75;99153.66;4972798;28;20668;-52
2022/08/10 01:42:06;;;;;;;3.97;1.70;;;;;;;19.90;45.97;99154.50;4974070;28;20763;-50
2022/08/10 01:44:36;;;;;;;3.07;1.50;;;;;;;19.99;45.94;99157.78;4974673;28;20201;-50
2022/08/10 01:50:00;;;;;;;3.73;1.60;;;;;;;19.71;46.58;99153.34;4974365;28;20291;-50
2022/08/10 01:52:30;;;;;;;3.03;1.80;;;;;;;19.64;46.33;99155.16;4973966;28;20222;-49
2022/08/10 01:54:58;;;;;;;1.50;1.40;;;;;;;19.61;46.68;99148.44;4974237;28;20334;-49
2022/08/10 01:57:29;;;;;;;5.40;1.50;;;;;;;19.71;46.40;99157.84;4974069;28;20286;-49
2022/08/10 01:59:57;;;;;;;3.03;1.50;;;;;;;19.64;46.89;99157.81;4973657;28;20205;-51
2022/08/10 02:02:27;;;;;;;3.07;1.90;;;;;;;19.57;46.92;99152.50;4973289;28;20223;-50
2022/08/10 02:04:54;;;;;;;2.30;1.67;;;;;;;19.77;45.97;99152.56;4972910;28;20229;-50
2022/08/10 02:07:26;;;;;;;6.50;1.90;;;;;;;19.94;45.88;99160.19;4974000;28;20231;-50
2022/08/10 02:09:56;;;;;;;2.73;1.80;;;;;;;20.09;44.94;99153.94;4973840;28;20199;-52
2022/08/10 02:12:26;;;;;;;5.03;2.10;;;;;;;20.06;45.66;99157.81;4973473;28;20217;-49
2022/08/10 02:14:55;;;;;;;2.10;1.90;;;;;;;19.98;45.98;99150.84;4972184;28;20220;-50
2022/08/10 02:17:26;;;;;;;1.90;1.67;;;;;;;19.87;45.69;99154.03;4971910;28;20255;-51
2022/08/10 02:19:55;;;;;;;4.90;1.90;;;;;;;19.89;46.26;99149.38;4973277;28;20193;-50
2022/08/10 02:22:23;;;;;;;4.23;1.60;;;;;;;19.92;45.74;99156.94;4973383;28;20225;-51
2022/08/10 02:24:51;;;;;;;2.63;1.80;;;;;;;20.26;44.11;99155.19;4973746;28;20188;-50
2022/08/10 02:27:21;;;;;;;1.60;1.50;;;;;;;20.27;44.33;99159.47;4973442;28;20209;-53
2022/08/10 02:29:50;;;;;;;4.20;1.97;;;;;;;20.26;44.80;99159.66;4971961;28;20257;-49
2022/08/10 02:32:18;;;;;;;2.83;1.60;;;;;;;20.19;44.70;99162.31;4973284;28;20693;-50
2022/08/10 02:34:48;;;;;;;3.70;2.10;;;;;;;20.06;45.11;99168.41;4973305;28;20207;-50
2022/08/10 02:37:17;;;;;;;2.33;1.70;;;;;;;20.05;44.94;99169.41;4972225;28;20214;-52
2022/08/10 02:39:44;;;;;;;4.63;2.07;;;;;;;20.07;44.93;99164.75;4973396;28;20207;-51
2022/08/10 02:42:16;;;;;;;1.97;1.63;;;;;;;20.12;44.63;99175.56;4972866;28;20286;-49
2022/08/10 02:44:49;;;;;;;2.77;2.00;;;;;;;20.18;44.63;99166.78;4972968;28;20227;-50
2022/08/10 02:47:22;;;;;;;1.67;1.50;;;;;;;20.14;44.90;99168.19;4973189;28;21169;-51
2022/08/10 02:49:59;;;;;;;3.73;2.03;;;;;;;20.10;44.72;99168.81;4974265;28;20289;-50
2022/08/10 02:52:34;;;;;;;5.93;2.03;;;;;;;20.01;45.44;99163.69;4971396;28;20229;-49
2022/08/10 02:55:07;;;;;;;3.33;1.90;;;;;;;19.94;45.74;99168.16;4972551;28;20238;-49
2022/08/10 02:57:38;;;;;;;4.97;1.97;;;;;;;20.02;45.38;99180.41;4973131;28;20217;-53
2022/08/10 03:00:07;;;;;;;2.57;1.80;;;;;;;20.00;45.14;99175.31;4971446;28;20196;-53
2022/08/10 03:02:37;;;;;;;1.80;1.57;;;;;;;19.94;45.64;99167.34;4972273;28;20219;-50
2022/08/10 03:05:10;;;;;;;3.83;1.90;;;;;;;19.73;46.44;99177.00;4971957;28;20192;-51
2022/08/10 03:07:43;;;;;;;3.37;1.90;;;;;;;19.54;46.76;99174.06;4971407;28;20212;-52
2022/08/10 03:10:14;;;;;;;4.87;1.90;;;;;;;19.54;46.97;99178.56;4973125;28;20572;-49
2022/08/10 03:13:01;;;;;;;6.20;2.10;;;;;;;19.49;46.99;99173.84;4971494;28;20343;-49
2022/08/10 03:15:31;;;;;;;2.27;2.00;;;;;;;19.48;46.98;99174.84;4966550;28;20212;-53
2022/08/10 03:17:58;;;;;;;4.67;1.80;;;;;;;19.29;47.37;99182.47;4958197;28;20252;-53
2022/08/10 03:20:30;;;;;;;4.70;2.17;;;;;;;19.14;48.60;99181.75;4972716;28;20204;-50
2022/08/10 03:22:58;;;;;;;6.70;1.90;;;;;;;19.05;48.92;99178.44;4970481;28;20272;-52
2022/08/10 03:25:26;;;;;;;2.10;1.90;;;;;;;18.99;49.09;99181.88;4972755;28;20291;-51
2022/08/10 03:27:53;;;;;;;4.10;1.97;;;;;;;19.02;49.07;99179.66;4964822;28;20212;-51
2022/08/10 03:30:21;;;;;;;2.20;2.00;;;;;;;19.08;48.86;99179.91;4967565;28;20213;-50
2022/08/10 03:32:49;;;;;;;3.63;2.20;;;;;;;19.06;49.18;99182.72;4970141;28;20215;-50
2022/08/10 03:35:17;;;;;;;3.07;1.97;;;;;;;18.98;49.55;99181.06;4966018;28;20227;-51
2022/08/10 03:37:45;;;;;;;2.77;2.03;;;;;;;18.85;49.11;99186.22;4972755;28;20227;-50
2022/08/10 03:40:12;;;;;;;3.03;2.00;;;;;;;18.76;49.66;99188.16;4964853;28;20200;-51
2022/08/10 03:42:40;;;;;;;8.73;2.53;;;;;;;18.64;50.08;99187.84;4960265;28;20225;-50
2022/08/10 03:45:09;;;;;;;3.73;2.13;;;;;;;18.51;50.99;99185.09;4972620;28;20209;-50
2022/08/10 03:47:38;;;;;;;6.13;2.37;;;;;;;18.36;51.22;99191.25;4972417;28;20259;-51
2022/08/10 03:50:07;;;;;;;2.70;2.20;;;;;;;18.32;51.13;99189.97;4969340;28;20265;-50
2022/08/10 03:52:35;;;;;;;2.83;2.40;;;;;;;18.12;51.64;99189.78;4970128;28;20228;-53
2022/08/10 03:55:04;;;;;;;6.47;2.83;;;;;;;17.96;51.82;99188.97;4968100;28;20222;-51
2022/08/10 03:57:32;;;;;;;4.47;2.80;;;;;;;17.85;52.71;99187.63;4959526;28;20216;-50
2022/08/10 03:59:59;;;;;;;4.10;2.50;;;;;;;17.76;52.72;99183.44;4955575;28;20199;-50
2022/08/10 04:02:26;;;;;;;5.07;2.50;;;;;;;17.67;53.05;99185.34;4962539;28;20725;-50
2022/08/10 04:04:53;;;;;;;4.20;2.50;;;;;;;17.58;53.49;99181.16;4966278;28;20215;-50
2022/08/10 04:07:20;;;;;;;5.53;2.60;;;;;;;17.47;53.79;99182.44;4965542;28;20206;-50
2022/08/10 04:09:47;;;;;;;4.60;3.03;;;;;;;17.41;53.92;99191.94;4972451;28;20205;-50
2022/08/10 04:12:15;;;;;;;4.80;2.70;;;;;;;17.31;53.75;99190.53;4972005;28;20230;-50
2022/08/10 04:14:42;;;;;;;5.43;2.70;;;;;;;17.22;53.77;99197.72;4972189;28;20288;-52
2022/08/10 04:17:09;;;;;;;2.83;2.40;;;;;;;17.17;54.94;99198.25;4972111;28;20193;-52
2022/08/10 04:19:42;;;;;;;3.90;2.73;;;;;;;17.15;54.88;99197.59;4972046;28;20209;-53
2022/08/10 04:22:14;;;;;;;4.57;2.90;;;;;;;17.18;54.32;99199.88;4967894;28;20214;-54
2022/08/10 04:24:43;;;;;;;6.47;3.10;;;;;;;17.19;54.43;99206.00;4956347;28;20634;-51
2022/08/10 04:27:10;;;;;;;3.40;3.10;;;;;;;17.14;54.56;99198.59;4970752;28;20552;-50
2022/08/10 04:29:39;;;;;;;8.23;3.17;;;;;;;17.04;54.33;99198.88;4967796;28;20201;-53
2022/08/10 04:32:09;;;;;;;3.67;3.00;;;;;;;17.02;54.62;99208.78;4975025;28;20217;-52
2022/08/10 04:34:38;;;;;;;5.60;2.83;;;;;;;16.92;55.02;99200.25;4951598;28;20245;-50
2022/08/10 04:37:08;;;;;;;3.13;2.60;;;;;;;16.90;55.26;99211.00;4964319;28;20250;-52
2022/08/10 04:39:34;;;;;;;3.53;2.97;;;;;;;16.89;55.68;99204.09;4966543;28;20205;-53
2022/08/10 04:42:01;;;;;;;4.87;2.80;;;;;;;16.86;55.57;99209.72;4974774;28;20710;-51
2022/08/10 04:44:28;;;;;;;10.17;2.90;;;;;;;16.86;55.72;99217.63;4971653;28;20527;-53
2022/08/10 04:46:56;;;;;;;9.83;3.37;;;;;;;16.86;55.35;99215.00;4969369;28;20212;-50
2022/08/10 04:49:23;;;;;;;4.70;3.03;;;;;;;16.88;55.51;99213.00;4975477;28;20182;-53
2022/08/10 04:51:49;;;;;;;4.20;2.87;;;;;;;16.82;55.74;99216.34;4975147;28;20221;-51
2022/08/10 04:54:16;;;;;;;4.37;2.57;;;;;;;16.83;55.99;99215.34;4975325;28;20204;-53
2022/08/10 04:56:43;;;;;;;3.90;2.77;;;;;;;16.85;55.76;99213.34;4974738;28;20659;-50
2022/08/10 04:59:11;;;;;;;5.13;2.87;;;;;;;16.83;56.01;99215.34;4963593;28;20268;-52
2022/08/10 05:01:39;;;;;;;3.40;2.80;;;;;;;16.81;56.58;99215.50;4965981;28;20217;-50
2022/08/10 05:04:07;;;;;;;6.63;2.70;;;;;;;16.80;56.39;99213.88;4960255;28;20206;-51
2022/08/10 05:06:33;;;;;;;2.90;2.23;;;;;;;16.81;56.95;99218.16;4968634;28;20217;-50
2022/08/10 05:09:00;;;;;;;3.97;2.70;;;;;;;16.86;56.65;99222.91;4967248;28;20252;-49
2022/08/10 05:11:27;;;;;;;3.60;2.50;;;;;;;16.83;56.62;99224.06;4974784;28;20220;-50
2022/08/10 05:13:54;;;;;;;6.97;2.53;;;;;;;16.82;56.46;99227.69;4964062;28;20588;-51
2022/08/10 05:16:20;;;;;;;3.70;2.90;;;;;;;16.81;56.41;99227.88;4974583;28;20223;-53
2022/08/10 05:18:47;;;;;;;3.67;2.77;;;;;;;16.82;56.47;99232.16;4971669;28;20190;-51
2022/08/10 05:21:15;;;;;;;7.07;2.60;;;;;;;16.78;56.54;99231.69;4974504;28;20193;-51
2022/08/10 05:23:42;;;;;;;6.97;2.97;;;;;;;16.83;56.27;99224.06;4974805;28;20213;-50
2022/08/10 05:26:08;;;;;;;4.20;2.87;;;;;;;16.85;56.36;99225.69;4969350;28;20202;-50
2022/08/10 05:28:36;;;;;;;5.20;2.60;;;;;;;16.86;56.47;99230.81;4970877;28;20686;-50
2022/08/10 05:31:03;;;;;;;3.60;2.77;;;;;;;16.85;56.21;99236.25;4973890;28;20198;-50
2022/08/10 05:33:30;;;;;;;4.73;3.10;;;;;;;16.86;56.43;99230.81;4963526;28;20205;-53
2022/08/10 05:35:57;;;;;;;4.27;3.00;;;;;;;16.89;56.61;99235.72;4961761;28;20217;-50
2022/08/10 05:38:27;;;;;;;3.37;2.60;;;;;;;16.88;56.85;99241.16;4970734;28;20205;-53
2022/08/10 05:40:54;;;;;;;3.77;2.97;;;;;;;16.83;57.15;99233.81;4968563;28;20285;-53
2022/08/10 05:43:22;;;;;;;4.67;2.70;;;;;;;16.82;56.95;99230.34;4968962;28;20271;-50
2022/08/10 05:45:51;;;;;;;5.23;2.47;;;;;;;16.88;56.28;99230.63;4969669;28;20234;-50
2022/08/10 05:48:18;;;;;;;5.07;2.60;;;;;;;16.93;56.63;99230.91;4963193;28;20205;-50
2022/08/10 05:50:45;;;;;;;5.10;2.70;;;;;;;16.91;57.48;99239.00;4964628;28;20548;-53
2022/08/10 05:53:11;;;;;;;9.03;2.70;;;;;;;16.94;57.35;99238.66;4965956;28;20666;-51
2022/08/10 05:55:40;;;;;;;9.93;3.23;;;;;;;16.93;57.39;99239.66;4974163;28;20225;-50
2022/08/10 05:58:07;;;;;;;7.27;2.63;;;;;;;16.95;57.40;99240.31;4974175;28;20213;-53
2022/08/10 06:00:36;;;;;;;4.53;2.90;;;;;;;16.97;57.31;99238.31;4974208;28;20252;-50
2022/08/10 06:03:07;;;;;;;5.40;2.67;;;;;;;17.03;57.26;99242.06;4976638;28;20224;-51
2022/08/10 06:05:36;;;;;;;3.17;2.73;;;;;;;17.08;57.19;99242.34;4963157;28;20256;-52
2022/08/10 06:08:10;;;;;;;4.57;2.70;;;;;;;17.09;57.47;99245.81;4975712;28;20197;-50
2022/08/10 06:10:40;;;;;;;7.83;2.70;;;;;;;17.10;57.65;99250.91;4979011;28;20196;-50
2022/08/10 06:16:11;;;;;;;6.00;2.67;;;;;;;17.30;56.96;99244.31;4933738;29;20282;-53
2022/08/10 06:18:38;;;;;;;6.50;3.00;;;;;;;17.39;56.70;99241.44;4928727;29;20290;-52
2022/08/10 06:21:08;;;;;;;3.90;2.70;;;;;;;17.49;57.07;99245.63;4944981;28;20214;-50
2022/08/10 06:23:36;;;;;;;3.57;2.77;;;;;;;17.64;55.62;99240.34;4970683;28;20541;-53
2022/08/10 06:26:06;;;;;;;3.63;2.80;;;;;;;17.73;56.25;99231.34;4972963;28;20199;-53
2022/08/10 06:28:37;;;;;;;4.83;2.63;;;;;;;17.80;56.46;99234.88;4972646;28;20183;-53
2022/08/10 06:31:07;;;;;;;3.97;3.13;;;;;;;17.94;55.92;99238.50;4972656;28;20200;-50
2022/08/10 06:33:38;;;;;;;4.93;2.80;;;;;;;18.11;55.56;99228.56;4973256;28;20673;-52
2022/08/10 06:36:07;;;;;;;5.60;3.10;;;;;;;18.22;55.15;99234.38;4972798;28;20227;-50
2022/08/10 06:38:35;;;;;;;4.77;2.47;;;;;;;18.38;55.71;99239.44;4973241;28;20221;-51
2022/08/10 06:41:08;;;;;;;8.63;3.10;;;;;;;18.58;55.18;99247.59;4973112;28;20210;-54
2022/08/10 06:43:36;;;;;;;3.47;2.47;;;;;;;18.83;53.85;99244.56;4971258;28;20228;-52
2022/08/10 06:46:07;;;;;;;3.63;3.10;;;;;;;19.06;53.76;99243.59;4964328;28;20680;-54
2022/08/10 06:48:37;;;;;;;4.70;2.60;;;;;;;19.27;52.31;99239.28;4971728;28;20196;-52
2022/08/10 06:51:07;;;;;;;5.47;2.37;;;;;;;19.51;52.47;99243.28;4969995;28;20200;-52
2022/08/10 06:53:37;;;;;;;4.03;2.50;;;;;;;19.76;51.07;99233.03;4970287;28;20221;-50
2022/08/10 06:56:11;;;;;;;4.87;2.60;;;;;;;19.97;50.77;99235.84;4970023;28;20242;-53
2022/08/10 06:58:43;;;;;;;3.63;2.50;;;;;;;20.24;49.86;99233.25;4972300;28;20196;-50
2022/08/10 07:01:14;;;;;;;3.73;2.40;;;;;;;20.46;48.56;99233.97;4969190;28;20711;-50
2022/08/10 07:03:46;;;;;;;4.43;2.30;;;;;;;20.71;48.08;99239.50;4972332;28;20195;-52
2022/08/10 07:06:16;;;;;;;4.57;2.30;;;;;;;20.91;48.67;99241.41;4972103;28;20192;-53
2022/08/10 07:08:43;;;;;;;6.10;2.30;;;;;;;21.20;47.09;99242.81;4972625;28;20222;-50
2022/08/10 07:11:14;;;;;;;3.60;1.67;;;;;;;21.75;41.90;99246.22;4972118;28;20247;-50
2022/08/10 07:13:43;;;;;;;3.43;1.93;;;;;;;22.07;41.02;99244.47;4972494;28;20204;-50
2022/08/10 07:16:12;;;;;;;3.17;1.97;;;;;;;22.53;38.98;99253.25;4970182;28;20232;-50
2022/08/10 07:18:41;;;;;;;4.30;2.17;;;;;;;22.79;38.84;99246.16;4972510;28;20569;-50
2022/08/10 07:21:08;;;;;;;2.90;1.80;;;;;;;23.09;37.62;99244.69;4971196;28;20210;-53
2022/08/10 07:23:38;;;;;;;2.57;1.70;;;;;;;23.16;37.58;99245.44;4972357;28;20863;-50
2022/08/10 07:26:08;;;;;;;2.77;1.60;;;;;;;23.31;36.56;99247.81;4972462;28;20193;-53
2022/08/10 07:28:37;;;;;;;2.50;1.40;;;;;;;23.48;36.88;99247.22;4972231;28;20191;-52
2022/08/10 07:31:05;;;;;;;6.27;1.63;;;;;;;23.59;36.37;99246.50;4970679;28;20249;-51
2022/08/10 07:33:34;;;;;;;1.77;1.47;;;;;;;23.71;36.00;99258.06;4971552;28;20200;-50
2022/08/10 07:36:02;;;;;;;1.33;1.23;;;;;;;23.80;36.70;99241.75;4972140;28;20575;-53
2022/08/10 07:38:31;;;;;;;1.40;1.30;;;;;;;23.86;35.65;99243.53;4972204;28;20228;-52
2022/08/10 07:40:59;;;;;;;4.50;1.53;;;;;;;23.92;36.32;99239.97;4970804;28;20643;-50
2022/08/10 07:43:33;;;;;;;6.90;1.60;;;;;;;23.95;36.32;99236.03;4970841;28;20201;-52
2022/08/10 07:46:03;;;;;;;2.70;1.40;;;;;;;24.02;36.17;99239.47;4969712;28;20245;-53
2022/08/10 07:48:33;;;;;;;2.50;1.57;;;;;;;24.12;36.29;99247.75;4972126;28;20203;-53
2022/08/10 07:51:02;;;;;;;1.50;1.30;;;;;;;24.26;33.84;99251.09;4972119;28;20195;-50
2022/08/10 07:53:34;;;;;;;8.63;1.47;;;;;;;24.43;33.56;99237.09;4972091;28;20194;-53
2022/08/10 07:56:03;;;;;;;1.97;1.40;;;;;;;24.52;34.04;99235.72;4971946;28;20212;-51
2022/08/10 07:58:34;;;;;;;2.10;1.30;;;;;;;24.64;33.27;99243.78;4972230;28;20202;-53
2022/08/10 08:01:02;;;;;;;1.83;1.47;;;;;;;24.71;33.28;99238.34;4970593;28;20280;-50
2022/08/10 08:03:32;;;;;;;2.20;1.20;;;;;;;24.74;33.01;99246.75;4973791;28;20203;-52
2022/08/10 08:06:01;;;;;;;5.17;1.23;;;;;;;24.88;32.42;99243.88;4975864;28;20200;-51
2022/08/10 08:08:30;;;;;;;4.80;1.30;;;;;;;25.03;31.68;99243.41;4975776;28;20542;-52
2022/08/10 08:10:58;;;;;;;2.73;1.40;;;;;;;25.11;31.57;99243.06;4975338;28;20189;-51
2022/08/10 08:13:27;;;;;;;2.50;1.30;;;;;;;25.16;32.70;99243.19;4975517;28;20197;-51
2022/08/10 08:15:56;;;;;;;3.40;1.30;;;;;;;25.05;31.32;99233.31;4974487;28;20298;-53
2022/08/10 08:18:26;;;;;;;2.57;1.40;;;;;;;25.16;31.19;99234.34;4975990;28;20204;-53
2022/08/10 08:20:54;;;;;;;4.00;1.40;;;;;;;25.22;30.66;99256.66;4976176;28;20198;-50
2022/08/10 08:23:22;;;;;;;4.40;1.30;;;;;;;25.28;31.69;99237.03;4975127;28;20262;-50
2022/08/10 08:25:49;;;;;;;2.77;1.30;;;;;;;25.20;31.29;99235.50;4975260;28;20196;-51
2022/08/10 08:28:17;;;;;;;3.00;1.20;;;;;;;25.31;31.92;99234.69;4974606;28;20210;-50
2022/08/10 08:30:46;;;;;;;2.30;1.20;;;;;;;25.40;30.50;99235.19;4973577;28;20227;-50
2022/08/10 08:33:15;;;;;;;3.20;1.10;;;;;;;25.52;30.23;99232.50;4971827;28;20258;-51
2022/08/10 08:35:44;;;;;;;4.10;1.20;;;;;;;25.54;29.96;99238.44;4974710;28;20316;-53
2022/08/10 08:38:13;;;;;;;1.73;1.30;;;;;;;25.70;29.76;99233.41;4975418;28;20716;-51
2022/08/10 08:40:47;;;;;;;2.00;1.30;;;;;;;25.69;27.85;99243.28;4975587;28;20674;-51
2022/08/10 08:43:46;;;;;;;3.83;1.37;;;;;;;25.78;27.35;99223.16;4975129;28;20224;-50
2022/08/10 08:46:38;;;;;;;7.27;1.20;;;;;;;25.77;28.43;99234.09;4972448;28;20250;-50
2022/08/10 08:49:19;;;;;;;2.97;1.17;;;;;;;25.96;26.92;99232.06;4974410;28;20197;-51
2022/08/10 08:51:58;;;;;;;2.53;1.33;;;;;;;26.00;26.79;99237.75;4974055;28;20210;-53
2022/08/10 08:54:52;;;;;;;5.13;1.37;;;;;;;26.08;26.39;99238.19;4975126;28;20199;-52
2022/08/10 08:57:26;;;;;;;4.82;1.15;;;;;;;26.08;26.19;99229.34;4973794;28;20714;-50
2022/08/10 09:00:05;;;;;;;3.63;1.10;;;;;;;26.07;26.58;99235.75;4974737;28;20214;-52
2022/08/10 09:03:16;;;;;;;7.80;1.30;;;;;;;25.99;26.59;99244.97;4972276;28;20703;-52
2022/08/10 09:05:50;;;;;;;3.23;1.00;;;;;;;26.00;26.88;99245.75;4974961;28;20198;-50
2022/08/10 09:08:40;;;;;;;5.50;1.13;;;;;;;26.11;26.76;99238.75;4974683;28;20587;-50
2022/08/10 09:11:23;;;;;;;2.43;0.93;;;;;;;26.06;26.28;99229.59;4974772;28;20726;-51
2022/08/10 09:14:00;;;;;;;3.37;1.00;;;;;;;26.27;26.12;99238.03;4974213;28;20216;-51
2022/08/10 09:16:34;;;;;;;3.80;1.30;;;;;;;26.26;25.78;99227.56;4973224;28;20240;-51
2022/08/10 09:19:08;;;;;;;2.10;1.10;;;;;;;26.38;26.35;99210.41;4974321;28;20215;-51
2022/08/10 09:21:42;;;;;;;4.13;1.10;;;;;;;26.53;26.12;99220.56;4971401;28;20230;-50
2022/08/10 09:24:16;;;;;;;2.83;1.07;;;;;;;26.56;25.64;99207.75;4974421;28;20201;-50
2022/08/10 09:26:49;;;;;;;4.33;1.20;;;;;;;26.39;25.98;99219.25;4974326;28;20208;-52
2022/08/10 09:29:23;;;;;;;6.85;1.50;;;;;;;26.46;25.47;99221.78;4974300;28;20203;-51
2022/08/10 09:31:59;;;;;;;2.47;1.20;;;;;;;26.55;25.38;99225.66;4970643;28;20755;-50
2022/08/10 09:34:32;;;;;;;3.67;1.10;;;;;;;26.56;24.92;99216.56;4973881;28;20201;-53
2022/08/10 09:37:04;;;;;;;2.80;1.10;;;;;;;26.64;25.13;99226.09;4973190;28;20224;-50
2022/08/10 09:39:42;;;;;;;4.67;1.00;;;;;;;26.70;25.64;99222.44;4974389;28;20633;-51
2022/08/10 09:42:15;;;;;;;3.57;1.20;;;;;;;26.66;25.22;99216.75;4971177;28;20577;-54
2022/08/10 09:44:50;;;;;;;2.77;1.40;;;;;;;26.66;25.59;99224.78;4973978;28;20197;-51
2022/08/10 09:47:31;;;;;;;3.53;1.30;;;;;;;26.79;25.67;99218.31;4972825;28;20237;-53
2022/08/10 09:50:08;;;;;;;4.47;1.08;;;;;;;26.96;26.11;99222.88;4974118;28;20201;-50
2022/08/10 09:52:47;;;;;;;4.78;1.25;;;;;;;26.69;25.98;99215.47;4972433;28;20223;-51
2022/08/10 09:55:23;;;;;;;1.77;1.10;;;;;;;26.93;25.57;99209.97;4973456;28;20208;-50
2022/08/10 09:58:00;;;;;;;4.80;1.20;;;;;;;26.83;25.66;99220.53;4973991;28;20200;-51
2022/08/10 10:00:32;;;;;;;7.13;1.17;;;;;;;26.80;25.97;99214.56;4972435;28;20286;-52
2022/08/10 10:03:12;;;;;;;1.38;1.10;;;;;;;26.94;25.40;99225.78;4971884;28;20230;-51
2022/08/10 10:05:56;;;;;;;2.97;1.20;;;;;;;27.07;24.96;99223.84;4974064;28;20195;-53
2022/08/10 10:08:32;;;;;;;4.00;1.20;;;;;;;27.14;24.82;99219.13;4972989;28;20240;-50
2022/08/10 10:11:17;;;;;;;2.03;1.20;;;;;;;27.14;24.59;99218.31;4972852;28;20203;-54
2022/08/10 10:13:59;;;;;;;3.37;1.33;;;;;;;27.26;24.43;99219.84;4972965;28;20539;-50
2022/08/10 10:16:39;;;;;;;5.88;1.27;;;;;;;27.15;25.29;99196.63;4971565;28;20669;-52
2022/08/10 10:19:17;;;;;;;4.53;1.20;;;;;;;27.36;25.88;99202.28;4972263;28;20196;-51
2022/08/10 10:21:49;;;;;;;1.85;1.38;;;;;;;27.55;24.39;99214.38;4971899;28;20215;-51
2022/08/10 10:24:25;;;;;;;3.75;1.40;;;;;;;27.59;24.38;99203.94;4973815;28;20200;-53
2022/08/10 10:26:59;;;;;;;1.38;1.05;;;;;;;27.69;23.22;99216.66;4972902;28;20626;-51
2022/08/10 10:29:36;;;;;;;3.88;1.40;;;;;;;27.47;23.77;99204.03;4972572;28;20192;-51
2022/08/10 10:32:08;;;;;;;1.63;1.38;;;;;;;27.54;24.56;99198.50;4969906;28;20242;-51
2022/08/10 10:34:39;;;;;;;2.50;1.48;;;;;;;27.64;24.38;99203.19;4972901;28;20573;-52
2022/08/10 10:37:09;;;;;;;4.10;1.50;;;;;;;27.81;24.78;99208.50;4972627;28;20270;-50
2022/08/10 10:39:40;;;;;;;2.28;1.23;;;;;;;27.49;24.43;99193.91;4972722;28;20558;-50
2022/08/10 10:42:16;;;;;;;6.88;1.02;;;;;;;27.50;24.28;99200.91;4972489;28;20236;-55
2022/08/10 10:44:53;;;;;;;3.70;1.50;;;;;;;27.68;24.92;99201.63;4972823;28;20523;-51
2022/08/10 10:47:37;;;;;;;1.25;1.00;;;;;;;27.85;24.73;99201.56;4970504;28;20224;-51
2022/08/10 10:50:31;;;;;;;1.58;1.40;;;;;;;27.87;24.85;99198.63;4974372;28;20729;-51
2022/08/10 10:53:08;;;;;;;4.78;1.40;;;;;;;27.88;24.66;99206.44;4968874;28;20228;-51
2022/08/10 10:55:44;;;;;;;3.72;1.30;;;;;;;27.91;25.30;99189.00;4971449;28;20202;-54
2022/08/10 10:58:19;;;;;;;2.33;1.50;;;;;;;28.11;25.56;99188.41;4971678;28;20203;-52
2022/08/10 11:00:54;;;;;;;2.17;1.40;;;;;;;28.21;24.70;99185.06;4971792;28;20238;-50
2022/08/10 11:03:44;;;;;;;1.98;1.30;;;;;;;28.16;24.57;99180.44;4970486;28;20633;-53
2022/08/10 11:06:24;;;;;;;5.03;1.40;;;;;;;27.94;24.90;99178.59;4971294;28;20208;-50
2022/08/10 11:08:57;;;;;;;4.53;1.30;;;;;;;27.92;25.25;99183.41;4970280;28;20215;-51
2022/08/10 11:11:29;;;;;;;5.45;1.60;;;;;;;27.97;24.36;99183.47;4968788;28;20222;-54
2022/08/10 11:14:24;;;;;;;2.03;1.33;;;;;;;27.76;24.26;99165.53;4972405;28;20599;-51
2022/08/10 11:16:58;;;;;;;1.85;1.25;;;;;;;27.92;24.43;99178.03;4969913;28;20245;-51
2022/08/10 11:19:34;;;;;;;5.05;1.42;;;;;;;28.06;23.90;99183.81;4972597;28;20573;-52
2022/08/10 11:22:12;;;;;;;3.70;1.30;;;;;;;28.20;23.64;99181.53;4969963;28;20223;-53
2022/08/10 11:24:46;;;;;;;3.78;1.40;;;;;;;28.00;23.79;99171.41;4971446;28;20198;-51
2022/08/10 11:27:23;;;;;;;3.85;1.52;;;;;;;27.91;23.96;99180.97;4971991;28;20192;-52
2022/08/10 11:30:02;;;;;;;7.07;1.90;;;;;;;27.99;23.75;99183.19;4972622;28;20205;-50
2022/08/10 11:32:36;;;;;;;2.20;1.48;;;;;;;28.12;23.71;99179.28;4970234;28;20228;-51
2022/08/10 11:35:12;;;;;;;3.15;1.27;;;;;;;28.27;24.18;99206.31;4972346;28;20723;-53
2022/08/10 11:37:45;;;;;;;2.58;1.42;;;;;;;28.52;23.99;99172.72;4971723;28;20216;-52
2022/08/10 11:40:17;;;;;;;4.03;1.27;;;;;;;28.66;23.47;99183.81;4971295;28;20614;-51
2022/08/10 11:42:52;;;;;;;4.15;1.52;;;;;;;28.70;23.00;99176.06;4970250;28;20727;-51
2022/08/10 11:45:27;;;;;;;1.98;1.48;;;;;;;28.71;23.35;99175.78;4971017;28;20207;-52
2022/08/10 11:47:58;;;;;;;1.63;1.30;;;;;;;28.77;23.35;99168.63;4971766;28;20665;-51
2022/08/10 11:50:31;;;;;;;4.55;1.30;;;;;;;28.82;23.41;99159.78;4972585;28;20631;-57
2022/08/10 11:53:07;;;;;;;2.30;1.10;;;;;;;29.06;22.56;99172.84;4971127;28;20231;-50
2022/08/10 11:55:35;;;;;;;1.70;1.05;;;;;;;29.13;22.93;99160.78;4970277;28;20747;-52
2022/08/10 11:59:55;;;;;;;3.50;1.55;;;;;;;29.05;21.82;99163.97;4972028;28;20228;-51
2022/08/10 12:00:58;;;;;;;2.88;1.15;;;;;;;29.09;21.53;99165.06;4970837;28;20240;-53
2022/08/10 12:03:26;;;;;;;6.10;1.20;;;;;;;28.67;22.55;99160.47;4972021;28;20190;-52